createdAt,value
2018-06-23T00:17:25.860Z,12.47
2018-06-23T00:20:09.166Z,12.46
2018-06-23T00:22:39.899Z,12.42
2018-06-23T00:25:16.064Z,12.40
2018-06-23T00:27:52.162Z,12.37
2018-06-23T00:30:27.761Z,12.32
2018-06-23T00:33:03.858Z,12.26
2018-06-23T00:35:39.467Z,12.15
2018-06-23T00:38:15.980Z,12.17
2018-06-23T00:40:48.662Z,12.15
2018-06-23T00:43:24.524Z,12.12
2018-06-23T00:45:57.450Z,12.09
2018-06-23T00:48:46.418Z,12.02
2018-06-23T00:51:28.901Z,11.93
2018-06-23T00:54:07.754Z,11.81
2018-06-23T00:56:41.920Z,11.76
2018-06-23T00:59:28.830Z,11.75
2018-06-23T01:02:02.403Z,11.74
2018-06-23T01:04:37.410Z,11.70
2018-06-23T01:07:16.130Z,11.62
2018-06-23T01:09:51.942Z,11.56
2018-06-23T01:12:34.420Z,11.49
2018-06-23T01:15:04.972Z,11.49
2018-06-23T01:20:47.608Z,11.48
2018-06-23T01:23:25.909Z,11.45
2018-06-23T01:26:02.911Z,11.49
2018-06-23T01:28:37.286Z,11.49
2018-06-23T01:31:11.174Z,11.52
2018-06-23T01:33:53.806Z,11.50
2018-06-23T01:36:30.203Z,11.52
2018-06-23T01:39:04.524Z,11.58
2018-06-23T01:41:36.177Z,11.59
2018-06-23T01:44:07.579Z,11.60
2018-06-23T01:46:38.586Z,11.54
2018-06-23T01:49:14.914Z,11.49
2018-06-23T01:51:50.072Z,11.46
2018-06-23T01:54:24.580Z,11.46
2018-06-23T01:56:57.171Z,11.40
2018-06-23T01:59:34.345Z,11.36
2018-06-23T02:02:08.861Z,11.35
2018-06-23T02:04:40.140Z,11.37
2018-06-23T02:07:11.218Z,11.32
2018-06-23T02:09:42.425Z,11.16
2018-06-23T02:12:12.876Z,11.06
2018-06-23T02:14:48.464Z,10.94
2018-06-23T02:17:24.469Z,10.84
2018-06-23T02:20:00.221Z,10.78
2018-06-23T02:22:41.585Z,10.74
2018-06-23T02:25:18.541Z,10.77
2018-06-23T02:27:56.535Z,10.73
2018-06-23T02:30:55.023Z,10.70
2018-06-23T02:33:36.849Z,10.66
2018-06-23T02:36:11.899Z,10.73
2018-06-23T02:38:46.098Z,10.75
2018-06-23T02:41:19.083Z,10.73
2018-06-23T02:43:52.993Z,10.76
2018-06-23T02:46:23.419Z,10.83
2018-06-23T02:48:54.396Z,10.91
2018-06-23T02:51:27.005Z,10.93
2018-06-23T02:53:58.698Z,10.80
2018-06-23T02:56:30.332Z,10.73
2018-06-23T02:59:00.987Z,10.66
2018-06-23T03:01:33.197Z,10.61
2018-06-23T03:04:05.074Z,10.59
2018-06-23T03:06:35.416Z,10.60
2018-06-23T03:09:08.075Z,10.59
2018-06-23T03:11:44.045Z,10.55
2018-06-23T03:14:14.393Z,10.46
2018-06-23T03:16:45.770Z,10.47
2018-06-23T03:19:16.391Z,10.41
2018-06-23T03:21:49.139Z,10.41
2018-06-23T03:24:25.534Z,10.39
2018-06-23T03:27:02.512Z,10.39
2018-06-23T03:29:36.632Z,10.38
2018-06-23T03:32:08.044Z,10.33
2018-06-23T03:34:44.163Z,10.24
2018-06-23T03:37:26.819Z,10.16
2018-06-23T03:39:57.550Z,10.11
2018-06-23T03:42:31.607Z,10.08
2018-06-23T03:45:15.279Z,10.03
2018-06-23T03:47:50.291Z,10.04
2018-06-23T03:50:27.544Z,10.10
2018-06-23T03:53:00.416Z,10.13
2018-06-23T03:55:32.974Z,10.18
2018-06-23T03:58:07.158Z,10.24
2018-06-23T04:00:44.835Z,10.27
2018-06-23T04:03:31.359Z,10.29
2018-06-23T04:06:19.484Z,10.37
2018-06-23T04:08:50.282Z,10.40
2018-06-23T04:11:24.658Z,10.43
2018-06-23T04:13:59.127Z,10.47
2018-06-23T04:16:34.654Z,10.52
2018-06-23T04:19:15.186Z,10.60
2018-06-23T04:21:50.738Z,10.68
2018-06-23T04:24:34.423Z,10.74
2018-06-23T04:27:05.182Z,10.81
2018-06-23T04:29:36.504Z,10.88
2018-06-23T04:32:07.570Z,10.93
2018-06-23T04:34:40.680Z,10.97
2018-06-23T04:37:13.343Z,11.01
2018-06-23T04:39:43.953Z,11.20
2018-06-23T04:42:18.696Z,11.42
2018-06-23T04:44:50.341Z,11.77
2018-06-23T04:47:22.116Z,12.07
2018-06-23T04:49:52.838Z,12.40
2018-06-23T04:52:24.115Z,12.90
2018-06-23T04:55:06.883Z,13.29
2018-06-23T04:57:37.480Z,13.72
2018-06-23T05:00:12.443Z,14.10
2018-06-23T05:02:47.722Z,14.47
2018-06-23T05:05:34.498Z,14.76
2018-06-23T05:08:07.226Z,14.30
2018-06-23T05:10:41.756Z,14.24
2018-06-23T05:13:17.973Z,14.04
2018-06-23T05:15:54.014Z,14.25
2018-06-23T05:18:41.998Z,14.16
2018-06-23T05:21:15.925Z,14.67
2018-06-23T05:23:52.903Z,14.88
2018-06-23T05:26:27.442Z,15.32
2018-06-23T05:29:09.947Z,16.11
2018-06-23T05:31:41.536Z,16.90
2018-06-23T05:34:16.667Z,17.58
2018-06-23T05:36:52.149Z,18.28
2018-06-23T05:39:23.857Z,19.02
2018-06-23T05:41:58.542Z,19.48
2018-06-23T05:44:58.912Z,20.54
2018-06-23T05:47:39.480Z,22.61
2018-06-23T05:50:13.622Z,22.29
2018-06-23T05:52:46.373Z,24.09
2018-06-23T05:55:18.479Z,24.45
2018-06-23T05:57:51.400Z,24.65
2018-06-23T06:00:24.342Z,23.73
2018-06-23T06:02:57.882Z,25.28
2018-06-23T06:05:40.059Z,23.21
2018-06-23T06:08:21.117Z,21.79
2018-06-23T06:11:00.255Z,24.08
2018-06-23T06:13:43.077Z,23.91
2018-06-23T06:16:23.341Z,24.23
2018-06-23T06:18:55.298Z,25.20
2018-06-23T06:24:31.483Z,27.72
2018-06-23T06:27:04.172Z,26.78
2018-06-23T06:29:40.062Z,24.11
2018-06-23T06:32:20.906Z,25.65
2018-06-23T06:35:15.266Z,26.64
2018-06-23T06:40:53.580Z,27.19
2018-06-23T06:43:29.577Z,24.58
2018-06-23T06:46:09.434Z,27.22
2018-06-23T06:48:45.742Z,27.32
2018-06-23T06:51:18.240Z,28.24
2018-06-23T06:53:49.114Z,25.77
2018-06-23T06:56:20.277Z,25.59
2018-06-23T06:58:51.450Z,22.92
2018-06-23T07:01:22.551Z,25.08
2018-06-23T07:03:54.051Z,26.46
2018-06-23T07:06:25.125Z,23.35
2018-06-23T07:09:05.364Z,24.18
2018-06-23T07:11:43.198Z,24.00
2018-06-23T07:14:19.950Z,23.16
2018-06-23T07:16:57.343Z,24.31
2018-06-23T07:19:30.638Z,22.96
2018-06-23T07:22:09.473Z,23.62
2018-06-23T07:24:43.498Z,22.95
2018-06-23T07:27:20.861Z,24.74
2018-06-23T07:29:52.891Z,26.19
2018-06-23T07:32:25.476Z,26.41
2018-06-23T07:35:00.822Z,26.06
2018-06-23T07:37:43.659Z,23.34
2018-06-23T07:40:16.670Z,24.07
2018-06-23T07:42:49.299Z,26.51
2018-06-23T07:45:21.487Z,25.72
2018-06-23T07:47:58.467Z,25.38
2018-06-23T07:50:39.152Z,27.20
2018-06-23T07:53:10.834Z,26.75
2018-06-23T07:55:42.989Z,27.99
2018-06-23T07:58:14.854Z,28.70
2018-06-23T08:00:52.296Z,25.89
2018-06-23T08:03:24.263Z,27.26
2018-06-23T08:05:56.902Z,27.87
2018-06-23T08:08:46.337Z,27.03
2018-06-23T08:11:18.192Z,27.35
2018-06-23T08:13:54.547Z,29.22
2018-06-23T08:16:39.095Z,29.05
2018-06-23T08:19:15.961Z,29.34
2018-06-23T08:21:59.211Z,29.76
2018-06-23T08:24:31.473Z,29.17
2018-06-23T08:27:03.260Z,30.00
2018-06-23T08:29:43.922Z,30.10
2018-06-23T08:32:14.813Z,28.97
2018-06-23T08:34:50.247Z,30.17
2018-06-23T08:37:21.020Z,29.66
2018-06-23T08:39:54.685Z,29.26
2018-06-23T08:42:27.218Z,29.61
2018-06-23T08:44:58.770Z,28.42
2018-06-23T08:47:31.968Z,27.30
2018-06-23T08:50:07.279Z,28.14
2018-06-23T08:52:45.843Z,28.32
2018-06-23T08:55:18.289Z,27.71
2018-06-23T08:57:51.424Z,24.81
2018-06-23T09:00:29.800Z,22.64
2018-06-23T09:03:08.959Z,21.26
2018-06-23T09:05:46.092Z,21.03
2018-06-23T09:08:17.997Z,21.03
2018-06-23T09:10:51.659Z,20.20
2018-06-23T09:13:28.754Z,20.15
2018-06-23T09:16:03.308Z,20.05
2018-06-23T09:18:35.531Z,20.92
2018-06-23T09:21:13.006Z,21.26
2018-06-23T09:23:55.371Z,21.19
2018-06-23T09:26:36.391Z,20.79
2018-06-23T09:29:26.007Z,20.37
2018-06-23T09:32:02.407Z,20.31
2018-06-23T09:34:33.162Z,21.62
2018-06-23T09:37:19.491Z,22.26
2018-06-23T09:40:02.332Z,23.14
2018-06-23T09:42:33.232Z,22.41
2018-06-23T09:45:06.832Z,23.87
2018-06-23T09:47:48.894Z,23.49
2018-06-23T09:50:29.834Z,24.64
2018-06-23T09:53:13.041Z,21.82
2018-06-23T09:55:49.673Z,22.18
2018-06-23T09:58:21.443Z,22.96
2018-06-23T10:00:55.113Z,23.15
2018-06-23T10:03:27.204Z,22.12
2018-06-23T10:05:59.071Z,20.97
2018-06-23T10:08:33.766Z,20.66
2018-06-23T10:11:07.685Z,20.60
2018-06-23T10:13:41.428Z,22.32
2018-06-23T10:16:15.005Z,24.07
2018-06-23T10:18:57.050Z,25.45
2018-06-23T10:21:35.528Z,28.91
2018-06-23T10:24:16.121Z,25.48
2018-06-23T10:26:52.427Z,27.98
2018-06-23T10:29:31.969Z,29.35
2018-06-23T10:32:05.135Z,29.53
2018-06-23T10:34:36.415Z,27.58
2018-06-23T10:37:15.916Z,24.89
2018-06-23T10:40:03.858Z,24.08
2018-06-23T10:43:02.787Z,25.31
2018-06-23T10:45:38.060Z,25.37
2018-06-23T10:48:22.028Z,25.44
2018-06-23T10:50:57.534Z,25.75
2018-06-23T10:53:30.516Z,26.31
2018-06-23T10:56:05.902Z,29.18
2018-06-23T10:58:38.366Z,29.44
2018-06-23T11:01:14.127Z,29.61
2018-06-23T11:03:56.775Z,29.63
2018-06-23T11:06:27.516Z,28.83
2018-06-23T11:09:03.555Z,29.60
2018-06-23T11:11:42.021Z,27.94
2018-06-23T11:14:15.349Z,29.41
2018-06-23T11:17:01.567Z,30.93
2018-06-23T11:19:38.971Z,27.49
2018-06-23T11:22:16.540Z,26.88
2018-06-23T11:24:49.382Z,25.62
2018-06-23T11:27:33.098Z,26.00
2018-06-23T11:30:25.820Z,26.62
2018-06-23T11:32:56.579Z,27.75
2018-06-23T11:35:28.378Z,27.01
2018-06-23T11:37:59.190Z,27.87
2018-06-23T11:40:29.411Z,27.58
2018-06-23T11:43:04.445Z,27.64
2018-06-23T11:45:39.069Z,29.68
2018-06-23T11:48:15.507Z,26.02
2018-06-23T11:50:57.553Z,28.67
2018-06-23T11:53:30.956Z,31.66
2018-06-23T11:56:26.719Z,31.95
2018-06-23T11:59:06.347Z,28.37
2018-06-23T12:01:43.970Z,29.23
2018-06-23T12:04:44.567Z,29.36
2018-06-23T12:07:24.578Z,30.66
2018-06-23T12:09:58.273Z,31.51
2018-06-23T12:12:37.404Z,32.00
2018-06-23T12:15:20.264Z,32.26
2018-06-23T12:17:53.385Z,31.81
2018-06-23T12:20:34.709Z,32.47
2018-06-23T12:23:08.494Z,34.16
2018-06-23T12:25:40.656Z,32.06
2018-06-23T12:28:13.822Z,32.49
2018-06-23T12:30:48.371Z,34.03
2018-06-23T12:33:28.910Z,34.98
2018-06-23T12:36:16.787Z,35.56
2018-06-23T12:38:51.326Z,33.27
2018-06-23T12:41:22.245Z,33.87
2018-06-23T12:43:53.505Z,31.64
2018-06-23T12:46:26.652Z,28.97
2018-06-23T12:48:57.241Z,27.87
2018-06-23T12:51:31.167Z,29.97
2018-06-23T12:54:02.035Z,30.13
2018-06-23T12:56:33.875Z,31.42
2018-06-23T12:59:04.378Z,29.01
2018-06-23T13:01:40.896Z,26.85
2018-06-23T13:04:12.538Z,28.72
2018-06-23T13:06:43.334Z,30.86
2018-06-23T13:09:17.589Z,30.17
2018-06-23T13:12:01.079Z,30.35
2018-06-23T13:14:39.429Z,28.86
2018-06-23T13:17:11.603Z,28.62
2018-06-23T13:20:06.601Z,29.18
2018-06-23T13:23:00.247Z,29.29
2018-06-23T13:25:50.039Z,29.35
2018-06-23T13:28:21.253Z,29.53
2018-06-23T13:30:53.741Z,31.70
2018-06-23T13:33:30.206Z,31.57
2018-06-23T13:36:06.523Z,31.16
2018-06-23T13:38:48.266Z,34.03
2018-06-23T13:41:21.735Z,31.33
2018-06-23T13:43:58.175Z,31.83
2018-06-23T13:46:32.990Z,31.93
2018-06-23T13:49:16.366Z,31.77
2018-06-23T13:52:01.416Z,32.56
2018-06-23T13:54:36.990Z,33.64
2018-06-23T13:57:11.475Z,31.71
2018-06-23T13:59:47.604Z,32.24
2018-06-23T14:02:21.143Z,34.66
2018-06-23T14:04:55.907Z,35.24
2018-06-23T14:07:31.453Z,34.14
2018-06-23T14:10:19.516Z,32.80
2018-06-23T14:12:53.667Z,32.11
2018-06-23T14:15:24.576Z,30.25
2018-06-23T14:18:03.235Z,34.13
2018-06-23T14:20:54.067Z,36.02
2018-06-23T14:23:28.170Z,37.35
2018-06-23T14:26:02.397Z,37.92
2018-06-23T14:28:33.889Z,38.27
2018-06-23T14:31:18.229Z,37.55
2018-06-23T14:34:13.844Z,36.93
2018-06-23T14:36:54.410Z,38.76
2018-06-23T14:39:40.330Z,37.74
2018-06-23T14:42:29.644Z,33.78
2018-06-23T14:45:09.935Z,36.09
2018-06-23T14:47:43.957Z,36.94
2018-06-23T14:50:21.155Z,38.25
2018-06-23T14:52:56.750Z,37.93
2018-06-23T14:55:32.157Z,36.35
2018-06-23T14:58:06.535Z,36.73
2018-06-23T15:00:38.992Z,38.03
2018-06-23T15:03:25.057Z,37.21
2018-06-23T15:05:56.752Z,36.35
2018-06-23T15:08:46.570Z,36.45
2018-06-23T15:11:35.547Z,35.14
2018-06-23T15:14:19.833Z,32.98
2018-06-23T15:17:03.635Z,32.60
2018-06-23T15:19:36.282Z,34.66
2018-06-23T15:22:19.765Z,34.33
2018-06-23T15:24:59.944Z,34.43
2018-06-23T15:27:33.843Z,32.64
2018-06-23T15:30:21.348Z,31.59
2018-06-23T15:32:57.047Z,33.24
2018-06-23T15:35:28.752Z,30.31
2018-06-23T15:38:04.468Z,30.59
2018-06-23T15:40:42.558Z,30.20
2018-06-23T15:43:27.347Z,29.91
2018-06-23T15:46:03.903Z,28.86
2018-06-23T15:48:55.696Z,27.80
2018-06-23T15:51:27.584Z,26.93
2018-06-23T15:54:04.813Z,25.83
2018-06-23T15:56:37.505Z,24.40
2018-06-23T15:59:18.913Z,24.56
2018-06-23T16:01:58.872Z,25.04
2018-06-23T16:04:29.566Z,25.13
2018-06-23T16:07:01.191Z,25.57
2018-06-23T16:09:36.031Z,26.26
2018-06-23T16:12:11.347Z,28.48
2018-06-23T16:14:52.497Z,28.54
2018-06-23T16:17:24.858Z,28.95
2018-06-23T16:20:06.708Z,30.39
2018-06-23T16:22:50.091Z,33.24
2018-06-23T16:25:28.701Z,33.09
2018-06-23T16:28:13.121Z,33.71
2018-06-23T16:30:49.866Z,33.79
2018-06-23T16:33:23.852Z,34.35
2018-06-23T16:36:00.122Z,33.03
2018-06-23T16:38:30.863Z,31.79
2018-06-23T16:41:07.665Z,32.09
2018-06-23T16:43:45.647Z,31.12
2018-06-23T16:46:16.351Z,29.47
2018-06-23T16:48:54.735Z,30.09
2018-06-23T16:51:43.430Z,29.60
2018-06-23T16:54:15.302Z,28.66
2018-06-23T16:57:05.051Z,28.00
2018-06-23T16:59:37.721Z,27.57
2018-06-23T17:02:10.182Z,27.22
2018-06-23T17:05:00.915Z,25.89
2018-06-23T17:07:38.390Z,25.63
2018-06-23T17:10:14.908Z,24.50
2018-06-23T17:12:50.827Z,24.33
2018-06-23T17:15:28.938Z,24.78
2018-06-23T17:18:05.165Z,24.60
2018-06-23T17:20:38.464Z,24.54
2018-06-23T17:23:18.720Z,24.04
2018-06-23T17:25:50.334Z,23.92
2018-06-23T17:28:21.225Z,23.26
2018-06-23T17:30:53.315Z,23.04
2018-06-23T17:33:24.422Z,22.96
2018-06-23T17:36:00.418Z,22.97
2018-06-23T17:38:32.486Z,22.75
2018-06-23T17:41:03.345Z,22.69
2018-06-23T17:43:34.021Z,22.84
2018-06-23T17:46:04.667Z,23.07
2018-06-23T17:48:35.799Z,23.05
2018-06-23T17:51:10.129Z,23.09
2018-06-23T17:53:40.654Z,23.24
2018-06-23T17:56:11.376Z,22.81
2018-06-23T17:58:43.314Z,22.41
2018-06-23T18:01:14.964Z,22.19
2018-06-23T18:03:47.921Z,22.20
2018-06-23T18:06:24.467Z,22.19
2018-06-23T18:08:56.115Z,22.26
2018-06-23T18:11:27.379Z,22.39
2018-06-23T18:14:17.668Z,22.28
2018-06-23T18:16:53.875Z,22.32
2018-06-23T18:19:30.638Z,22.45
2018-06-23T18:22:01.696Z,22.48
2018-06-23T18:24:34.198Z,22.04
2018-06-23T18:27:04.800Z,21.68
2018-06-23T18:29:36.380Z,21.59
2018-06-23T18:32:07.783Z,21.19
2018-06-23T18:34:38.899Z,21.05
2018-06-23T18:37:09.704Z,20.72
2018-06-23T18:39:41.486Z,20.59
2018-06-23T18:42:12.195Z,20.42
2018-06-23T18:44:44.196Z,20.23
2018-06-23T18:47:16.015Z,20.14
2018-06-23T18:49:46.717Z,20.01
2018-06-23T18:52:20.169Z,19.79
2018-06-23T18:54:50.727Z,19.61
2018-06-23T18:57:22.199Z,19.47
2018-06-23T18:59:55.206Z,19.35
2018-06-23T19:02:33.539Z,19.26
2018-06-23T19:05:09.022Z,19.21
2018-06-23T19:07:45.918Z,19.09
2018-06-23T19:10:22.134Z,19.04
2018-06-23T19:13:00.196Z,18.90
2018-06-23T19:15:32.383Z,18.81
2018-06-23T19:18:04.068Z,18.75
2018-06-23T19:20:46.761Z,18.67
2018-06-23T19:23:23.478Z,18.57
2018-06-23T19:25:58.699Z,18.51
2018-06-23T19:28:33.063Z,18.42
2018-06-23T19:31:05.670Z,18.23
2018-06-23T19:33:36.161Z,18.15
2018-06-23T19:36:13.202Z,18.04
2018-06-23T19:38:45.063Z,17.92
2018-06-23T19:41:26.179Z,17.80
2018-06-23T19:44:02.982Z,17.73
2018-06-23T19:46:35.056Z,17.65
2018-06-23T19:49:12.743Z,17.59
2018-06-23T19:52:00.334Z,17.57
2018-06-23T19:54:32.031Z,17.48
2018-06-23T19:57:09.125Z,17.41
2018-06-23T19:59:39.943Z,17.37
2018-06-23T20:02:11.683Z,17.33
2018-06-23T20:04:46.650Z,17.28
2018-06-23T20:07:21.850Z,17.18
2018-06-23T20:09:54.158Z,17.12
2018-06-23T20:12:30.635Z,17.07
2018-06-23T20:15:06.670Z,17.02
2018-06-23T20:17:49.522Z,16.99
2018-06-23T20:20:33.021Z,16.92
2018-06-23T20:23:07.146Z,16.83
2018-06-23T20:25:43.330Z,16.70
2018-06-23T20:28:15.066Z,16.61
2018-06-23T20:30:48.121Z,16.57
2018-06-23T20:33:24.270Z,16.53
2018-06-23T20:35:56.260Z,16.46
2018-06-23T20:38:32.950Z,16.37
2018-06-23T20:41:08.792Z,16.20
2018-06-23T20:43:55.145Z,16.19
2018-06-23T20:46:27.088Z,16.07
2018-06-23T20:48:58.540Z,15.99
2018-06-23T20:51:32.317Z,15.86
2018-06-23T20:54:07.991Z,15.77
2018-06-23T20:56:41.068Z,15.72
2018-06-23T20:59:11.776Z,15.63
2018-06-23T21:01:53.997Z,15.58
2018-06-23T21:04:24.724Z,15.48
2018-06-23T21:06:55.661Z,15.38
2018-06-23T21:09:29.835Z,15.32
2018-06-23T21:12:01.454Z,15.45
2018-06-23T21:14:36.248Z,15.47
2018-06-23T21:17:09.309Z,15.51
2018-06-23T21:19:41.862Z,15.55
2018-06-23T21:22:16.555Z,15.63
2018-06-23T21:24:49.643Z,15.60
2018-06-23T21:27:24.970Z,15.65
2018-06-23T21:29:59.276Z,15.78
2018-06-23T21:32:42.904Z,15.82
2018-06-23T21:35:14.760Z,15.78
2018-06-23T21:37:46.221Z,15.78
2018-06-23T21:40:22.628Z,15.80
2018-06-23T21:42:53.966Z,15.82
2018-06-23T21:45:34.874Z,15.81
2018-06-23T21:48:06.228Z,15.80
2018-06-23T21:50:41.957Z,15.84
2018-06-23T21:53:19.436Z,15.82
2018-06-23T21:55:51.232Z,15.81
2018-06-23T21:58:22.160Z,15.72
2018-06-23T22:00:59.750Z,15.63
2018-06-23T22:03:30.827Z,15.58
2018-06-23T22:06:02.044Z,15.55
2018-06-23T22:08:38.658Z,15.52
2018-06-23T22:11:15.594Z,15.49
2018-06-23T22:13:52.865Z,15.38
2018-06-23T22:16:36.194Z,15.35
2018-06-23T22:19:16.565Z,15.37
2018-06-23T22:21:49.245Z,15.38
2018-06-23T22:24:24.248Z,15.37
2018-06-23T22:26:57.767Z,15.37
2018-06-23T22:29:29.388Z,15.40
2018-06-23T22:32:04.240Z,15.42
2018-06-23T22:34:36.156Z,15.32
2018-06-23T22:37:30.929Z,15.26
2018-06-23T22:43:05.485Z,15.21
2018-06-23T22:45:48.955Z,15.19
2018-06-23T22:48:26.502Z,15.18
2018-06-23T22:51:16.972Z,15.11
2018-06-23T22:53:57.780Z,14.97
2018-06-23T22:56:42.214Z,14.86
2018-06-23T22:59:29.773Z,14.73
2018-06-23T23:02:13.938Z,14.58
2018-06-23T23:04:54.340Z,14.45
2018-06-23T23:07:44.229Z,14.31
2018-06-23T23:10:16.807Z,14.16
2018-06-23T23:12:48.308Z,14.05
2018-06-23T23:15:20.702Z,13.99
2018-06-23T23:18:01.604Z,13.93
2018-06-23T23:20:37.759Z,13.85
2018-06-23T23:23:11.318Z,13.78
2018-06-23T23:25:52.113Z,13.70
2018-06-23T23:28:29.361Z,13.70
2018-06-23T23:31:02.105Z,13.65
2018-06-23T23:33:42.658Z,13.65
2018-06-23T23:36:16.188Z,13.66
2018-06-23T23:38:49.815Z,13.60
2018-06-23T23:41:23.330Z,13.60
2018-06-23T23:44:06.602Z,13.53
2018-06-23T23:46:44.373Z,13.58
2018-06-23T23:49:26.705Z,13.60
2018-06-23T23:52:04.039Z,13.73
2018-06-23T23:54:41.284Z,13.81
2018-06-23T23:57:18.075Z,13.90
2018-06-23T23:59:49.612Z,13.85
